createdAt,value
2019-03-08T00:00:11.050Z,983.63
2019-03-08T00:01:11.042Z,983.69
2019-03-08T00:02:11.033Z,983.65
2019-03-08T00:03:11.041Z,983.72
2019-03-08T00:04:11.017Z,983.73
2019-03-08T00:05:11.020Z,983.72
2019-03-08T00:06:11.011Z,983.75
2019-03-08T00:07:11.009Z,983.7
2019-03-08T00:08:11.001Z,983.81
2019-03-08T00:09:11.001Z,983.78
2019-03-08T00:10:11.008Z,983.81
2019-03-08T00:11:10.977Z,983.81
2019-03-08T00:12:10.980Z,983.84
2019-03-08T00:13:10.964Z,983.88
2019-03-08T00:14:10.957Z,983.82
2019-03-08T00:15:10.952Z,983.88
2019-03-08T00:16:10.955Z,983.86
2019-03-08T00:17:10.944Z,983.91
2019-03-08T00:18:10.936Z,983.91
2019-03-08T00:19:10.929Z,983.91
2019-03-08T00:20:10.922Z,983.9
2019-03-08T00:21:10.921Z,983.95
2019-03-08T00:22:10.911Z,983.95
2019-03-08T00:23:10.906Z,983.95
2019-03-08T00:24:10.899Z,983.97
2019-03-08T00:25:10.894Z,983.98
2019-03-08T00:26:10.886Z,983.99
2019-03-08T00:27:10.881Z,983.96
2019-03-08T00:28:10.884Z,983.96
2019-03-08T00:29:10.876Z,983.95
2019-03-08T00:30:10.873Z,983.9
2019-03-08T00:31:10.858Z,983.95
2019-03-08T00:32:10.850Z,983.94
2019-03-08T00:33:10.853Z,983.95
2019-03-08T00:34:10.845Z,983.98
2019-03-08T00:35:10.838Z,983.99
2019-03-08T00:36:10.831Z,984.04
2019-03-08T00:37:10.824Z,984.03
2019-03-08T00:38:10.843Z,984.04
2019-03-08T00:39:10.816Z,983.99
2019-03-08T00:40:10.808Z,984.01
2019-03-08T00:41:10.803Z,984.04
2019-03-08T00:42:10.795Z,984.03
2019-03-08T00:43:10.788Z,984
2019-03-08T00:44:10.784Z,984.01
2019-03-08T00:45:10.777Z,984.01
2019-03-08T00:46:10.778Z,984.05
2019-03-08T00:47:10.768Z,984.07
2019-03-08T00:48:10.770Z,984.04
2019-03-08T00:49:10.766Z,984.06
2019-03-08T00:50:10.771Z,984.04
2019-03-08T00:51:10.745Z,984.04
2019-03-08T00:52:10.740Z,984.01
2019-03-08T00:53:10.732Z,984.05
2019-03-08T00:54:10.726Z,984.04
2019-03-08T00:55:10.725Z,984.05
2019-03-08T00:56:10.716Z,984.1
2019-03-08T00:57:10.715Z,984.11
2019-03-08T00:58:10.709Z,984.13
2019-03-08T00:59:10.709Z,984.16
2019-03-08T01:00:10.693Z,984.09
2019-03-08T01:01:10.693Z,984.11
2019-03-08T01:02:10.702Z,984.08
2019-03-08T01:03:10.675Z,984.11
2019-03-08T01:04:10.669Z,984.12
2019-03-08T01:05:10.665Z,984.13
2019-03-08T01:06:10.661Z,984.14
2019-03-08T01:07:10.665Z,984.16
2019-03-08T01:08:10.650Z,984.14
2019-03-08T01:09:10.644Z,984.1
2019-03-08T01:10:10.647Z,984.11
2019-03-08T01:11:10.630Z,984.11
2019-03-08T01:12:10.628Z,984.1
2019-03-08T01:13:10.621Z,984.13
2019-03-08T01:14:10.616Z,984.18
2019-03-08T01:15:10.616Z,984.15
2019-03-08T01:16:10.607Z,984.14
2019-03-08T01:17:10.613Z,984.13
2019-03-08T01:18:10.594Z,984.13
2019-03-08T01:19:10.587Z,984.17
2019-03-08T01:20:10.592Z,984.13
2019-03-08T01:21:10.585Z,984.11
2019-03-08T01:22:10.573Z,984.12
2019-03-08T01:23:10.565Z,984.13
2019-03-08T01:24:10.563Z,984.17
2019-03-08T01:25:10.553Z,984.14
2019-03-08T01:26:10.546Z,984.09
2019-03-08T01:27:10.549Z,984.11
2019-03-08T01:28:10.538Z,984.14
2019-03-08T01:29:10.557Z,984.1
2019-03-08T01:30:10.534Z,984.11
2019-03-08T01:31:10.550Z,984.07
2019-03-08T01:32:10.513Z,984.09
2019-03-08T01:33:10.503Z,984.08
2019-03-08T01:34:10.529Z,984.1
2019-03-08T01:35:10.493Z,984.06
2019-03-08T01:36:10.486Z,984.09
2019-03-08T01:37:10.484Z,984.1
2019-03-08T01:38:10.477Z,984.13
2019-03-08T01:39:10.470Z,984.07
2019-03-08T01:40:10.468Z,984.11
2019-03-08T01:41:10.460Z,984.09
2019-03-08T01:42:10.452Z,984.18
2019-03-08T01:43:10.447Z,984.16
2019-03-08T01:44:10.447Z,984.11
2019-03-08T01:45:10.447Z,984.19
2019-03-08T01:46:10.428Z,984.21
2019-03-08T01:47:10.423Z,984.24
2019-03-08T01:48:10.416Z,984.23
2019-03-08T01:49:10.411Z,984.27
2019-03-08T01:50:10.407Z,984.27
2019-03-08T01:51:10.398Z,984.26
2019-03-08T01:52:10.398Z,984.24
2019-03-08T01:53:10.391Z,984.28
2019-03-08T01:54:10.377Z,984.25
2019-03-08T01:55:10.377Z,984.26
2019-03-08T01:56:10.369Z,984.29
2019-03-08T01:57:10.365Z,984.3
2019-03-08T01:58:10.376Z,984.32
2019-03-08T01:59:10.354Z,984.26
2019-03-08T02:00:10.813Z,984.27
2019-03-08T02:01:10.350Z,984.31
2019-03-08T02:02:10.526Z,984.36
2019-03-08T02:03:10.335Z,984.31
2019-03-08T02:04:10.324Z,984.33
2019-03-08T02:05:10.326Z,984.32
2019-03-08T02:06:10.314Z,984.25
2019-03-08T02:07:10.307Z,984.35
2019-03-08T02:08:10.300Z,984.27
2019-03-08T02:09:10.295Z,984.26
2019-03-08T02:10:10.292Z,984.22
2019-03-08T02:11:10.288Z,984.23
2019-03-08T02:12:10.293Z,984.32
2019-03-08T02:13:10.281Z,984.3
2019-03-08T02:14:10.271Z,984.38
2019-03-08T02:15:10.253Z,984.33
2019-03-08T02:16:10.262Z,984.36
2019-03-08T02:17:10.245Z,984.37
2019-03-08T02:18:10.238Z,984.39
2019-03-08T02:19:10.246Z,984.41
2019-03-08T02:20:10.229Z,984.45
2019-03-08T02:21:10.234Z,984.49
2019-03-08T02:22:10.216Z,984.56
2019-03-08T02:23:10.216Z,984.5
2019-03-08T02:24:10.213Z,984.47
2019-03-08T02:25:10.207Z,984.51
2019-03-08T02:26:10.197Z,984.55
2019-03-08T02:27:10.238Z,984.59
2019-03-08T02:28:10.175Z,984.53
2019-03-08T02:29:10.164Z,984.49
2019-03-08T02:30:10.157Z,984.53
2019-03-08T02:31:10.149Z,984.4
2019-03-08T02:32:10.149Z,984.51
2019-03-08T02:33:10.143Z,984.45
2019-03-08T02:34:10.134Z,984.53
2019-03-08T02:35:10.127Z,984.52
2019-03-08T02:36:10.119Z,984.46
2019-03-08T02:37:10.111Z,984.49
2019-03-08T02:38:10.109Z,984.49
2019-03-08T02:39:10.106Z,984.49
2019-03-08T02:40:10.094Z,984.37
2019-03-08T02:41:10.121Z,984.43
2019-03-08T02:42:10.086Z,984.42
2019-03-08T02:43:10.089Z,984.39
2019-03-08T02:44:10.065Z,984.41
2019-03-08T02:45:10.058Z,984.39
2019-03-08T02:46:10.050Z,984.38
2019-03-08T02:47:10.050Z,984.42
2019-03-08T02:48:10.039Z,984.39
2019-03-08T02:49:10.032Z,984.36
2019-03-08T02:50:10.038Z,984.44
2019-03-08T02:51:10.018Z,984.42
2019-03-08T02:52:10.008Z,984.45
2019-03-08T02:53:10.002Z,984.5
2019-03-08T02:54:09.994Z,984.51
2019-03-08T02:55:09.988Z,984.4
2019-03-08T02:56:09.988Z,984.45
2019-03-08T02:57:09.984Z,984.51
2019-03-08T02:58:09.967Z,984.49
2019-03-08T02:59:09.961Z,984.54
2019-03-08T03:00:09.979Z,984.53
2019-03-08T03:01:09.949Z,984.56
2019-03-08T03:02:09.940Z,984.55
2019-03-08T03:03:09.932Z,984.57
2019-03-08T03:04:09.929Z,984.58
2019-03-08T03:05:09.920Z,984.57
2019-03-08T03:06:09.912Z,984.61
2019-03-08T03:07:09.905Z,984.64
2019-03-08T03:08:09.898Z,984.62
2019-03-08T03:09:09.890Z,984.61
2019-03-08T03:10:09.888Z,984.61
2019-03-08T03:11:09.877Z,984.6
2019-03-08T03:12:09.872Z,984.61
2019-03-08T03:13:09.863Z,984.62
2019-03-08T03:14:09.855Z,984.59
2019-03-08T03:15:09.847Z,984.59
2019-03-08T03:16:09.842Z,984.61
2019-03-08T03:17:09.840Z,984.63
2019-03-08T03:18:09.834Z,984.66
2019-03-08T03:19:09.833Z,984.69
2019-03-08T03:20:09.835Z,984.78
2019-03-08T03:21:09.809Z,984.77
2019-03-08T03:22:09.804Z,984.79
2019-03-08T03:23:09.793Z,984.79
2019-03-08T03:24:09.784Z,984.95
2019-03-08T03:25:09.779Z,984.9
2019-03-08T03:26:09.781Z,984.97
2019-03-08T03:27:09.762Z,984.98
2019-03-08T03:28:09.756Z,984.97
2019-03-08T03:29:09.748Z,985.02
2019-03-08T03:30:09.749Z,985.1
2019-03-08T03:31:09.737Z,985.1
2019-03-08T03:32:09.728Z,985.17
2019-03-08T03:33:09.726Z,985.18
2019-03-08T03:34:09.715Z,985.24
2019-03-08T03:35:09.710Z,985.21
2019-03-08T03:36:09.704Z,985.22
2019-03-08T03:37:09.693Z,985.24
2019-03-08T03:38:09.689Z,985.21
2019-03-08T03:39:09.684Z,985.23
2019-03-08T03:40:09.676Z,985.23
2019-03-08T03:41:09.668Z,985.28
2019-03-08T03:42:09.659Z,985.31
2019-03-08T03:43:09.654Z,985.32
2019-03-08T03:44:09.647Z,985.33
2019-03-08T03:45:09.639Z,985.34
2019-03-08T03:46:09.632Z,985.32
2019-03-08T03:47:09.626Z,985.31
2019-03-08T03:48:09.621Z,985.32
2019-03-08T03:49:09.612Z,985.3
2019-03-08T03:50:09.605Z,985.27
2019-03-08T03:51:09.597Z,985.29
2019-03-08T03:52:09.588Z,985.24
2019-03-08T03:53:09.583Z,985.34
2019-03-08T03:54:09.577Z,985.36
2019-03-08T03:55:09.574Z,985.41
2019-03-08T03:56:09.567Z,985.4
2019-03-08T03:57:09.554Z,985.39
2019-03-08T03:58:09.549Z,985.41
2019-03-08T03:59:09.548Z,985.41
2019-03-08T04:00:09.535Z,985.39
2019-03-08T04:01:09.529Z,985.37
2019-03-08T04:02:09.523Z,985.39
2019-03-08T04:03:09.515Z,985.45
2019-03-08T04:04:09.514Z,985.47
2019-03-08T04:05:09.499Z,985.46
2019-03-08T04:06:09.494Z,985.56
2019-03-08T04:07:09.489Z,985.56
2019-03-08T04:08:09.481Z,985.63
2019-03-08T04:09:10.273Z,985.63
2019-03-08T04:10:09.474Z,985.67
2019-03-08T04:11:09.488Z,985.68
2019-03-08T04:12:09.463Z,985.76
2019-03-08T04:13:09.443Z,985.72
2019-03-08T04:14:09.436Z,985.72
2019-03-08T04:15:09.432Z,985.76
2019-03-08T04:16:09.423Z,985.8
2019-03-08T04:17:09.418Z,985.85
2019-03-08T04:18:09.406Z,985.86
2019-03-08T04:19:09.400Z,985.84
2019-03-08T04:20:09.396Z,985.87
2019-03-08T04:21:09.387Z,985.91
2019-03-08T04:22:09.386Z,985.9
2019-03-08T04:23:09.381Z,985.98
2019-03-08T04:24:09.383Z,985.96
2019-03-08T04:25:09.359Z,985.97
2019-03-08T04:26:09.350Z,986.01
2019-03-08T04:27:09.349Z,986
2019-03-08T04:28:09.334Z,986.02
2019-03-08T04:29:09.333Z,986
2019-03-08T04:30:09.338Z,986.01
2019-03-08T04:31:09.331Z,986.06
2019-03-08T04:32:09.307Z,986.07
2019-03-08T04:33:09.301Z,986.08
2019-03-08T04:34:09.292Z,986.09
2019-03-08T04:35:09.289Z,986.05
2019-03-08T04:36:09.277Z,986.07
2019-03-08T04:37:09.271Z,986.03
2019-03-08T04:38:09.264Z,986.06
2019-03-08T04:39:09.258Z,986.09
2019-03-08T04:40:09.249Z,986.16
2019-03-08T04:41:09.240Z,986.21
2019-03-08T04:42:09.232Z,986.2
2019-03-08T04:43:09.232Z,986.3
2019-03-08T04:44:09.219Z,986.26
2019-03-08T04:45:09.212Z,986.29
2019-03-08T04:46:09.207Z,986.32
2019-03-08T04:47:09.198Z,986.38
2019-03-08T04:48:09.190Z,986.39
2019-03-08T04:49:09.184Z,986.28
2019-03-08T04:50:09.176Z,986.35
2019-03-08T04:51:09.168Z,986.4
2019-03-08T04:52:09.162Z,986.39
2019-03-08T04:53:09.153Z,986.43
2019-03-08T04:54:09.149Z,986.4
2019-03-08T04:55:09.141Z,986.5
2019-03-08T04:56:09.131Z,986.57
2019-03-08T04:57:09.127Z,986.5
2019-03-08T04:58:09.121Z,986.51
2019-03-08T04:59:09.108Z,986.54
2019-03-08T05:00:09.103Z,986.54
2019-03-08T05:01:09.101Z,986.48
2019-03-08T05:02:09.091Z,986.56
2019-03-08T05:03:09.077Z,986.45
2019-03-08T05:04:09.072Z,986.49
2019-03-08T05:05:09.082Z,986.48
2019-03-08T05:06:09.069Z,986.43
2019-03-08T05:07:09.082Z,986.46
2019-03-08T05:08:09.042Z,986.39
2019-03-08T05:09:09.039Z,986.37
2019-03-08T05:10:09.025Z,986.28
2019-03-08T05:11:09.018Z,986.26
2019-03-08T05:12:09.020Z,986.28
2019-03-08T05:13:09.000Z,986.3
2019-03-08T05:14:08.994Z,986.32
2019-03-08T05:15:08.988Z,986.34
2019-03-08T05:16:08.987Z,986.34
2019-03-08T05:17:08.971Z,986.39
2019-03-08T05:18:08.966Z,986.41
2019-03-08T05:19:08.961Z,986.47
2019-03-08T05:20:08.953Z,986.43
2019-03-08T05:21:08.942Z,986.47
2019-03-08T05:22:08.936Z,986.49
2019-03-08T05:23:08.934Z,986.45
2019-03-08T05:24:08.918Z,986.45
2019-03-08T05:25:08.912Z,986.49
2019-03-08T05:26:08.906Z,986.47
2019-03-08T05:27:08.901Z,986.51
2019-03-08T05:28:08.891Z,986.52
2019-03-08T05:29:08.882Z,986.54
2019-03-08T05:30:08.874Z,986.52
2019-03-08T05:31:08.866Z,986.51
2019-03-08T05:32:08.864Z,986.54
2019-03-08T05:33:08.853Z,986.57
2019-03-08T05:34:08.846Z,986.52
2019-03-08T05:35:08.840Z,986.55
2019-03-08T05:36:08.830Z,986.52
2019-03-08T05:37:08.821Z,986.52
2019-03-08T05:38:08.816Z,986.53
2019-03-08T05:39:08.809Z,986.5
2019-03-08T05:40:08.802Z,986.55
2019-03-08T05:41:08.790Z,986.58
2019-03-08T05:42:08.784Z,986.6
2019-03-08T05:43:08.777Z,986.51
2019-03-08T05:44:08.768Z,986.57
2019-03-08T05:45:08.761Z,986.57
2019-03-08T05:46:08.754Z,986.56
2019-03-08T05:47:08.748Z,986.66
2019-03-08T05:48:08.737Z,986.66
2019-03-08T05:49:08.730Z,986.69
2019-03-08T05:50:08.727Z,986.72
2019-03-08T05:51:08.720Z,986.71
2019-03-08T05:52:08.711Z,986.72
2019-03-08T05:53:08.701Z,986.78
2019-03-08T05:54:08.701Z,986.8
2019-03-08T05:55:08.700Z,986.8
2019-03-08T05:56:08.682Z,986.85
2019-03-08T05:57:08.679Z,986.86
2019-03-08T05:58:08.667Z,986.9
2019-03-08T05:59:08.652Z,986.97
2019-03-08T06:00:08.650Z,986.99
2019-03-08T06:01:08.637Z,986.97
2019-03-08T06:02:08.632Z,987.02
2019-03-08T06:03:08.621Z,987.04
2019-03-08T06:04:08.618Z,987.07
2019-03-08T06:05:08.610Z,987.03
2019-03-08T06:06:08.603Z,987.02
2019-03-08T06:07:08.594Z,987.02
2019-03-08T06:08:08.589Z,986.99
2019-03-08T06:09:08.576Z,987.01
2019-03-08T06:10:08.567Z,986.98
2019-03-08T06:11:08.562Z,987.06
2019-03-08T06:12:08.563Z,987.03
2019-03-08T06:13:08.546Z,987.04
2019-03-08T06:14:08.538Z,987.02
2019-03-08T06:15:08.531Z,987.03
2019-03-08T06:16:08.522Z,987.01
2019-03-08T06:17:08.519Z,987.1
2019-03-08T06:18:08.512Z,987.14
2019-03-08T06:19:08.501Z,987.16
2019-03-08T06:20:08.497Z,987.19
2019-03-08T06:21:08.484Z,987.21
2019-03-08T06:22:08.478Z,987.24
2019-03-08T06:23:08.472Z,987.22
2019-03-08T06:24:08.472Z,987.21
2019-03-08T06:25:08.477Z,987.22
2019-03-08T06:26:08.450Z,987.23
2019-03-08T06:27:08.449Z,987.31
2019-03-08T06:28:08.435Z,987.3
2019-03-08T06:29:08.426Z,987.36
2019-03-08T06:30:08.428Z,987.33
2019-03-08T06:31:08.423Z,987.36
2019-03-08T06:32:08.404Z,987.36
2019-03-08T06:33:08.395Z,987.39
2019-03-08T06:34:08.390Z,987.39
2019-03-08T06:35:08.390Z,987.4
2019-03-08T06:36:08.375Z,987.47
2019-03-08T06:37:08.367Z,987.48
2019-03-08T06:38:08.373Z,987.49
2019-03-08T06:39:08.353Z,987.51
2019-03-08T06:40:08.371Z,987.57
2019-03-08T06:41:08.341Z,987.56
2019-03-08T06:42:08.333Z,987.6
2019-03-08T06:43:08.325Z,987.6
2019-03-08T06:44:08.316Z,987.65
2019-03-08T06:45:08.323Z,987.64
2019-03-08T06:46:08.308Z,987.63
2019-03-08T06:47:08.307Z,987.67
2019-03-08T06:48:08.299Z,987.69
2019-03-08T06:49:08.286Z,987.66
2019-03-08T06:50:08.290Z,987.7
2019-03-08T06:51:08.271Z,987.71
2019-03-08T06:52:08.265Z,987.71
2019-03-08T06:53:08.254Z,987.7
2019-03-08T06:54:08.251Z,987.69
2019-03-08T06:55:08.249Z,987.73
2019-03-08T06:56:08.236Z,987.74
2019-03-08T06:57:08.239Z,987.76
2019-03-08T06:58:08.235Z,987.81
2019-03-08T06:59:08.236Z,987.76
2019-03-08T07:00:08.242Z,987.73
2019-03-08T07:01:08.205Z,987.72
2019-03-08T07:02:08.197Z,987.74
2019-03-08T07:03:08.194Z,987.78
2019-03-08T07:04:08.184Z,987.8
2019-03-08T07:05:08.178Z,987.79
2019-03-08T07:06:08.172Z,987.76
2019-03-08T07:07:08.167Z,987.8
2019-03-08T07:08:08.168Z,987.85
2019-03-08T07:09:08.152Z,987.87
2019-03-08T07:10:08.147Z,987.91
2019-03-08T07:11:08.141Z,987.91
2019-03-08T07:12:08.143Z,987.97
2019-03-08T07:13:08.128Z,987.96
2019-03-08T07:14:08.122Z,988
2019-03-08T07:15:08.129Z,988.05
2019-03-08T07:16:12.960Z,988.04
2019-03-08T07:17:08.104Z,987.98
2019-03-08T07:18:12.426Z,988.07
2019-03-08T07:19:08.092Z,988.11
2019-03-08T07:20:08.093Z,988.11
2019-03-08T07:21:08.077Z,988.15
2019-03-08T07:22:08.072Z,988.14
2019-03-08T07:23:08.066Z,988.18
2019-03-08T07:24:08.061Z,988.15
2019-03-08T07:25:08.053Z,988.17
2019-03-08T07:26:08.057Z,988.16
2019-03-08T07:27:08.059Z,988.19
2019-03-08T07:28:08.035Z,988.22
2019-03-08T07:29:08.028Z,988.23
2019-03-08T07:30:08.025Z,988.26
2019-03-08T07:31:08.015Z,988.32
2019-03-08T07:32:08.009Z,988.34
2019-03-08T07:33:08.010Z,988.35
2019-03-08T07:34:07.994Z,988.37
2019-03-08T07:35:07.991Z,988.39
2019-03-08T07:36:07.987Z,988.38
2019-03-08T07:37:07.980Z,988.34
2019-03-08T07:38:07.978Z,988.42
2019-03-08T07:39:07.982Z,988.42
2019-03-08T07:40:07.972Z,988.44
2019-03-08T07:41:07.954Z,988.46
2019-03-08T07:42:07.948Z,988.45
2019-03-08T07:43:07.945Z,988.48
2019-03-08T07:44:07.940Z,988.49
2019-03-08T07:45:07.941Z,988.51
2019-03-08T07:46:07.934Z,988.5
2019-03-08T07:47:07.919Z,988.56
2019-03-08T07:48:07.920Z,988.64
2019-03-08T07:49:07.918Z,988.65
2019-03-08T07:50:07.924Z,988.59
2019-03-08T07:51:07.917Z,988.64
2019-03-08T07:52:07.912Z,988.72
2019-03-08T07:53:07.914Z,988.61
2019-03-08T07:54:07.899Z,988.7
2019-03-08T07:55:07.898Z,988.74
2019-03-08T07:56:07.898Z,988.78
2019-03-08T07:57:07.901Z,988.81
2019-03-08T07:58:07.897Z,988.82
2019-03-08T07:59:07.896Z,988.79
2019-03-08T08:00:07.897Z,988.81
2019-03-08T08:01:07.902Z,988.81
2019-03-08T08:02:07.893Z,988.84
2019-03-08T08:03:07.893Z,988.89
2019-03-08T08:04:07.907Z,988.89
2019-03-08T08:05:07.895Z,988.93
2019-03-08T08:06:07.892Z,988.93
2019-03-08T08:07:07.901Z,988.98
2019-03-08T08:08:07.893Z,989.03
2019-03-08T08:09:07.887Z,988.97
2019-03-08T08:10:07.896Z,989.02
2019-03-08T08:11:07.881Z,989.04
2019-03-08T08:12:07.879Z,989.13
2019-03-08T08:13:07.884Z,989.13
2019-03-08T08:14:07.876Z,989.18
2019-03-08T08:15:07.871Z,989.21
2019-03-08T08:16:07.873Z,989.2
2019-03-08T08:17:07.868Z,989.19
2019-03-08T08:18:07.868Z,989.21
2019-03-08T08:19:07.861Z,989.17
2019-03-08T08:20:16.034Z,989.23
2019-03-08T08:21:07.857Z,989.27
2019-03-08T08:22:07.855Z,989.34
2019-03-08T08:23:07.852Z,989.36
2019-03-08T08:24:07.848Z,989.37
2019-03-08T08:25:07.849Z,989.41
2019-03-08T08:26:07.839Z,989.46
2019-03-08T08:27:07.843Z,989.39
2019-03-08T08:28:07.834Z,989.49
2019-03-08T08:29:07.832Z,989.45
2019-03-08T08:30:07.828Z,989.47
2019-03-08T08:31:07.824Z,989.43
2019-03-08T08:32:07.820Z,989.4
2019-03-08T08:33:07.814Z,989.4
2019-03-08T08:34:07.822Z,989.46
2019-03-08T08:35:07.830Z,989.42
2019-03-08T08:36:07.806Z,989.52
2019-03-08T08:37:07.808Z,989.51
2019-03-08T08:38:07.821Z,989.49
2019-03-08T08:39:07.796Z,989.51
2019-03-08T08:40:07.795Z,989.47
2019-03-08T08:41:07.791Z,989.49
2019-03-08T08:42:07.788Z,989.51
2019-03-08T08:43:07.781Z,989.58
2019-03-08T08:44:07.790Z,989.55
2019-03-08T08:45:07.773Z,989.56
2019-03-08T08:46:07.772Z,989.57
2019-03-08T08:47:07.768Z,989.6
2019-03-08T08:48:07.762Z,989.67
2019-03-08T08:49:07.758Z,989.67
2019-03-08T08:50:07.774Z,989.68
2019-03-08T08:51:07.758Z,989.73
2019-03-08T08:52:07.753Z,989.73
2019-03-08T08:53:07.746Z,989.64
2019-03-08T08:54:07.738Z,989.71
2019-03-08T08:55:07.735Z,989.74
2019-03-08T08:56:07.730Z,989.68
2019-03-08T08:57:07.728Z,989.72
2019-03-08T08:58:07.728Z,989.72
2019-03-08T08:59:07.721Z,989.71
2019-03-08T09:00:07.721Z,989.77
2019-03-08T09:01:07.723Z,989.74
2019-03-08T09:02:07.709Z,989.79
2019-03-08T09:03:07.705Z,989.78
2019-03-08T09:04:07.704Z,989.78
2019-03-08T09:05:07.699Z,989.77
2019-03-08T09:06:07.699Z,989.8
2019-03-08T09:07:07.687Z,989.85
2019-03-08T09:08:07.685Z,989.86
2019-03-08T09:09:07.682Z,989.83
2019-03-08T09:10:07.685Z,989.83
2019-03-08T09:11:07.678Z,989.87
2019-03-08T09:12:07.676Z,989.74
2019-03-08T09:13:07.666Z,989.77
2019-03-08T09:14:07.666Z,989.76
2019-03-08T09:15:07.663Z,989.74
2019-03-08T09:16:07.666Z,989.74
2019-03-08T09:17:07.656Z,989.73
2019-03-08T09:18:07.650Z,989.71
2019-03-08T09:19:07.646Z,989.71
2019-03-08T09:20:07.646Z,989.69
2019-03-08T09:21:07.661Z,989.71
2019-03-08T09:22:07.637Z,989.73
2019-03-08T09:23:07.632Z,989.7
2019-03-08T09:24:07.629Z,989.74
2019-03-08T09:25:07.625Z,989.65
2019-03-08T09:26:08.421Z,989.7
2019-03-08T09:27:07.619Z,989.7
2019-03-08T09:28:07.612Z,989.74
2019-03-08T09:29:07.616Z,989.75
2019-03-08T09:30:07.611Z,989.72
2019-03-08T09:31:07.605Z,989.69
2019-03-08T09:32:07.606Z,989.71
2019-03-08T09:33:07.617Z,989.75
2019-03-08T09:34:07.602Z,989.69
2019-03-08T09:35:07.611Z,989.67
2019-03-08T09:36:07.608Z,989.69
2019-03-08T09:37:07.583Z,989.72
2019-03-08T09:38:07.582Z,989.76
2019-03-08T09:39:07.575Z,989.83
2019-03-08T09:40:07.578Z,989.81
2019-03-08T09:41:07.571Z,989.89
2019-03-08T09:42:07.573Z,989.9
2019-03-08T09:43:07.559Z,989.9
2019-03-08T09:44:07.557Z,989.91
2019-03-08T09:45:07.558Z,989.91
2019-03-08T09:46:07.550Z,989.88
2019-03-08T09:47:07.547Z,989.96
2019-03-08T09:48:07.555Z,989.99
2019-03-08T09:49:07.544Z,989.94
2019-03-08T09:50:07.535Z,989.93
2019-03-08T09:51:07.549Z,989.97
2019-03-08T09:52:07.534Z,990
2019-03-08T09:53:07.525Z,990.07
2019-03-08T09:54:07.522Z,990.11
2019-03-08T09:55:07.521Z,990.14
2019-03-08T09:56:07.516Z,990.06
2019-03-08T09:57:07.518Z,990.02
2019-03-08T09:58:07.509Z,990.08
2019-03-08T09:59:07.506Z,990.08
2019-03-08T10:00:07.501Z,990.13
2019-03-08T10:01:16.131Z,990.2
2019-03-08T10:02:07.497Z,990.13
2019-03-08T10:03:07.495Z,990.03
2019-03-08T10:04:07.491Z,990.07
2019-03-08T10:05:07.492Z,990.23
2019-03-08T10:06:07.488Z,990.19
2019-03-08T10:07:07.545Z,990.17
2019-03-08T10:08:07.544Z,990.16
2019-03-08T10:09:07.477Z,990.11
2019-03-08T10:10:07.473Z,990.11
2019-03-08T10:11:07.470Z,990.09
2019-03-08T10:12:07.466Z,990.07
2019-03-08T10:13:07.464Z,990.06
2019-03-08T10:14:07.463Z,990.22
2019-03-08T10:15:07.463Z,990.13
2019-03-08T10:16:07.459Z,990.08
2019-03-08T10:17:07.453Z,990.17
2019-03-08T10:18:07.448Z,990.26
2019-03-08T10:19:07.447Z,990.12
2019-03-08T10:20:07.448Z,990.22
2019-03-08T10:21:07.443Z,990.18
2019-03-08T10:22:07.444Z,990.08
2019-03-08T10:23:07.436Z,990.16
2019-03-08T10:24:07.444Z,990.11
2019-03-08T10:25:07.433Z,990.22
2019-03-08T10:26:07.431Z,990.13
2019-03-08T10:27:07.427Z,990.12
2019-03-08T10:28:07.426Z,990.12
2019-03-08T10:29:07.420Z,990.13
2019-03-08T10:30:07.433Z,990.12
2019-03-08T10:31:07.416Z,990.2
2019-03-08T10:32:07.415Z,990.08
2019-03-08T10:33:07.414Z,990.03
2019-03-08T10:34:07.416Z,990.18
2019-03-08T10:35:07.415Z,990.15
2019-03-08T10:36:07.407Z,990.02
2019-03-08T10:37:07.408Z,990.06
2019-03-08T10:38:07.406Z,989.98
2019-03-08T10:39:07.401Z,990.13
2019-03-08T10:40:07.398Z,990.2
2019-03-08T10:41:07.403Z,990.21
2019-03-08T10:42:07.399Z,990.23
2019-03-08T10:43:07.390Z,990.32
2019-03-08T10:44:09.006Z,990.35
2019-03-08T10:45:07.386Z,990.29
2019-03-08T10:46:15.453Z,990.34
2019-03-08T10:47:07.381Z,990.27
2019-03-08T10:48:07.375Z,990.31
2019-03-08T10:49:07.390Z,990.17
2019-03-08T10:50:07.372Z,990.39
2019-03-08T10:51:07.367Z,990.45
2019-03-08T10:52:07.365Z,990.48
2019-03-08T10:53:07.368Z,990.39
2019-03-08T10:54:07.360Z,990.51
2019-03-08T10:55:07.357Z,990.57
2019-03-08T10:56:07.354Z,990.43
2019-03-08T10:57:07.348Z,990.41
2019-03-08T10:58:07.354Z,990.49
2019-03-08T10:59:07.349Z,990.5
2019-03-08T11:00:07.346Z,990.5
2019-03-08T11:01:07.342Z,990.51
2019-03-08T11:02:07.336Z,990.52
2019-03-08T11:03:07.336Z,990.56
2019-03-08T11:04:07.326Z,990.5
2019-03-08T11:05:07.326Z,990.58
2019-03-08T11:06:07.319Z,990.65
2019-03-08T11:07:07.327Z,990.73
2019-03-08T11:08:08.966Z,990.72
2019-03-08T11:09:07.311Z,990.71
2019-03-08T11:10:07.309Z,990.65
2019-03-08T11:11:07.304Z,990.63
2019-03-08T11:12:07.301Z,990.73
2019-03-08T11:13:07.298Z,990.78
2019-03-08T11:14:07.296Z,990.71
2019-03-08T11:15:07.295Z,990.7
2019-03-08T11:16:07.298Z,990.65
2019-03-08T11:17:07.293Z,990.74
2019-03-08T11:18:07.282Z,990.77
2019-03-08T11:19:08.849Z,990.72
2019-03-08T11:20:07.299Z,990.74
2019-03-08T11:21:07.274Z,990.89
2019-03-08T11:22:07.274Z,990.8
2019-03-08T11:23:07.275Z,990.89
2019-03-08T11:24:07.276Z,990.75
2019-03-08T11:25:08.347Z,990.71
2019-03-08T11:26:07.272Z,990.87
2019-03-08T11:27:07.282Z,990.83
2019-03-08T11:28:07.272Z,990.73
2019-03-08T11:29:07.258Z,990.8
2019-03-08T11:30:07.255Z,990.8
2019-03-08T11:31:07.250Z,990.88
2019-03-08T11:32:07.249Z,990.88
2019-03-08T11:33:07.250Z,990.97
2019-03-08T11:34:07.254Z,990.89
2019-03-08T11:35:07.251Z,990.81
2019-03-08T11:36:07.246Z,990.8
2019-03-08T11:37:07.246Z,990.8
2019-03-08T11:38:07.252Z,990.78
2019-03-08T11:39:07.232Z,990.86
2019-03-08T11:40:07.244Z,990.77
2019-03-08T11:41:07.229Z,990.82
2019-03-08T11:42:07.228Z,990.7
2019-03-08T11:43:07.240Z,990.74
2019-03-08T11:44:07.227Z,990.76
2019-03-08T11:45:07.225Z,990.75
2019-03-08T11:46:07.223Z,990.77
2019-03-08T11:47:07.220Z,990.7
2019-03-08T11:48:07.219Z,990.76
2019-03-08T11:49:07.224Z,990.7
2019-03-08T11:50:07.224Z,990.75
2019-03-08T11:51:07.220Z,990.91
2019-03-08T11:52:07.218Z,990.77
2019-03-08T11:53:07.209Z,990.84
2019-03-08T11:54:07.206Z,990.82
2019-03-08T11:55:07.209Z,990.74
2019-03-08T11:56:07.204Z,990.84
2019-03-08T11:57:07.202Z,990.81
2019-03-08T11:58:07.199Z,990.82
2019-03-08T11:59:07.198Z,990.65
2019-03-08T12:00:07.197Z,990.78
2019-03-08T12:01:07.191Z,990.77
2019-03-08T12:02:07.205Z,990.79
2019-03-08T12:03:07.188Z,990.8
2019-03-08T12:04:07.183Z,990.75
2019-03-08T12:05:07.183Z,990.85
2019-03-08T12:06:07.177Z,990.8
2019-03-08T12:07:07.180Z,990.97
2019-03-08T12:08:07.181Z,990.69
2019-03-08T12:09:07.170Z,990.77
2019-03-08T12:10:07.169Z,990.72
2019-03-08T12:11:07.168Z,990.78
2019-03-08T12:12:07.171Z,990.73
2019-03-08T12:13:07.158Z,990.65
2019-03-08T12:14:07.165Z,990.68
2019-03-08T12:15:07.160Z,990.71
2019-03-08T12:16:07.153Z,990.64
2019-03-08T12:17:07.149Z,990.72
2019-03-08T12:18:07.149Z,990.67
2019-03-08T12:19:07.146Z,990.66
2019-03-08T12:20:07.145Z,990.72
2019-03-08T12:21:07.139Z,990.67
2019-03-08T12:22:07.138Z,990.8
2019-03-08T12:23:07.139Z,990.77
2019-03-08T12:24:07.133Z,990.9
2019-03-08T12:25:07.133Z,990.85
2019-03-08T12:26:07.128Z,990.87
2019-03-08T12:27:07.131Z,990.88
2019-03-08T12:28:07.124Z,990.85
2019-03-08T12:29:07.128Z,990.83
2019-03-08T12:30:07.124Z,990.84
2019-03-08T12:31:07.120Z,990.8